Airports Norway Stavanger Airport Sola

Stavanger Airport Sola (ENZV / SVG)

Facts about Stavanger Airport Sola

Name Stavanger Airport Sola
City Stavanger
Country Norway
ICAO code ENZV
IATA code SVG
Elevation 8.8392 meters (29 feet)

Weather

METAR

Metar data retrieved Friday, 19 July 2024 at 23:55 UTC (21 minutes ago)

ENZV 192320Z 14006KT CAVOK 17/12 Q1017

Live traffic

Navigraph Charts (account required)